Terminal Aerodrome Forecast
Issued by NWS Wakefield, VA

Home | Current Version | Previous Version | Text Only | Print | Product List | Glossary On
Versions: 1 2 3 4 5 6 7 8 9 10 11 12 13 14 15 16 17 18 19 20 21 22 23 24 25 26 27 28 29
000
FTUS41 KAKQ 200021 AAB
TAFSBY
TAF AMD
KSBY 200021Z 2000/2024 35010G19KT P6SM VCSH SCT012 OVC040
      TEMPO 2000/2002 5SM -RA BKN012
     FM200500 33008KT P6SM BKN045
     FM200700 32007KT P6SM BKN060
     FM201200 31010G16KT P6SM SCT060
     FM201700 31012G19KT P6SM SCT060=

USA.gov is the U.S. government's official web portal to all federal, state and local government web resources and services.